Time;durP1;ratioP1;P1;durP2;ratioP2;P2;SDS_P1;SDS_P2;PMS_P1;PMS_P2;Temp;Humidity;BMP_temperature;BMP_pressure;BME280_temperature;BME280_humidity;BME280_pressure;Samples;Min_cycle;Max_cycle;Signal;HPM_P1;HPM_P2
2024/01/19 00:00:17;;;;;;;44.47;16.03;;;;;;;-7.40;100.00;100346.34;5029216;28;20464;-73
2024/01/19 00:02:43;;;;;;;32.33;14.90;;;;;;;-7.41;100.00;100350.66;5030149;28;20534;-73
2024/01/19 00:05:11;;;;;;;32.30;14.50;;;;;;;-7.36;100.00;100355.94;5026292;28;20562;-73
2024/01/19 00:07:38;;;;;;;33.03;14.53;;;;;;;-7.35;100.00;100354.94;5030401;28;20966;-73
2024/01/19 00:10:04;;;;;;;33.27;16.10;;;;;;;-7.36;100.00;100362.88;5032980;28;20463;-74
2024/01/19 00:12:35;;;;;;;34.07;16.67;;;;;;;-7.40;100.00;100367.63;5029313;28;20844;-73
2024/01/19 00:15:02;;;;;;;46.70;17.60;;;;;;;-7.42;100.00;100371.38;5022132;28;20562;-73
2024/01/19 00:17:28;;;;;;;43.70;17.93;;;;;;;-7.46;100.00;100373.59;5026065;28;20462;-73
2024/01/19 00:19:55;;;;;;;32.10;17.00;;;;;;;-7.47;100.00;100381.50;5031079;28;20462;-73
2024/01/19 00:22:22;;;;;;;33.77;16.63;;;;;;;-7.49;100.00;100383.50;5025123;28;20448;-73
2024/01/19 00:24:49;;;;;;;34.97;18.03;;;;;;;-7.51;100.00;100380.38;5032189;28;20467;-74
2024/01/19 00:27:15;;;;;;;33.37;15.57;;;;;;;-7.49;100.00;100386.88;5030920;28;20600;-73
2024/01/19 00:29:41;;;;;;;39.47;18.03;;;;;;;-7.47;100.00;100394.31;5037416;28;21119;-73
2024/01/19 00:32:08;;;;;;;42.10;17.00;;;;;;;-7.44;100.00;100406.72;5024287;28;20489;-73
2024/01/19 00:34:34;;;;;;;34.13;16.67;;;;;;;-7.50;100.00;100405.78;5030905;28;20481;-73
2024/01/19 00:37:00;;;;;;;35.47;17.50;;;;;;;-7.48;100.00;100403.81;5031514;28;20471;-74
2024/01/19 00:39:28;;;;;;;41.10;19.07;;;;;;;-7.49;100.00;100411.72;5024687;28;20806;-73
2024/01/19 00:41:54;;;;;;;39.67;16.87;;;;;;;-7.49;100.00;100422.75;5032950;28;20506;-73
2024/01/19 00:44:21;;;;;;;42.70;17.07;;;;;;;-7.47;100.00;100420.75;5029324;28;20563;-73
2024/01/19 00:46:47;;;;;;;36.80;17.57;;;;;;;-7.47;100.00;100425.88;5036539;28;20459;-73
2024/01/19 00:49:13;;;;;;;34.07;15.90;;;;;;;-7.48;100.00;100429.44;5031097;28;20562;-73
2024/01/19 00:51:40;;;;;;;36.83;15.37;;;;;;;-7.49;100.00;100433.00;5031778;28;20473;-73
2024/01/19 00:54:07;;;;;;;32.83;16.43;;;;;;;-7.51;100.00;100432.41;5032949;28;20471;-73
2024/01/19 00:56:35;;;;;;;34.97;16.13;;;;;;;-7.60;100.00;100436.28;5022951;28;20462;-73
2024/01/19 00:59:01;;;;;;;41.63;16.03;;;;;;;-7.59;100.00;100442.97;5033875;28;20461;-73
2024/01/19 01:01:27;;;;;;;32.17;15.73;;;;;;;-7.60;100.00;100443.16;5031691;28;20459;-73
2024/01/19 01:03:55;;;;;;;36.97;17.47;;;;;;;-7.61;100.00;100439.03;5037671;28;20464;-73
2024/01/19 01:06:21;;;;;;;39.43;16.67;;;;;;;-7.65;100.00;100441.25;5038600;28;20521;-73
2024/01/19 01:08:47;;;;;;;39.77;17.83;;;;;;;-7.63;100.00;100448.72;5040360;28;20482;-73
2024/01/19 01:11:14;;;;;;;39.00;18.20;;;;;;;-7.58;100.00;100448.84;5036058;28;20552;-73
2024/01/19 01:13:41;;;;;;;44.63;18.57;;;;;;;-7.52;100.00;100453.13;5033989;28;20458;-73
2024/01/19 01:16:08;;;;;;;36.70;18.57;;;;;;;-7.42;100.00;100448.31;5031045;28;20960;-73
2024/01/19 01:18:34;;;;;;;48.03;20.57;;;;;;;-7.35;100.00;100452.38;5030070;28;20458;-73
2024/01/19 01:21:01;;;;;;;44.37;20.00;;;;;;;-7.22;100.00;100456.59;5031513;28;20541;-74
2024/01/19 01:23:27;;;;;;;42.10;18.40;;;;;;;-7.15;100.00;100459.91;5032927;28;20866;-73
2024/01/19 01:25:54;;;;;;;35.63;18.03;;;;;;;-7.08;100.00;100461.41;5032382;28;20467;-73
2024/01/19 01:28:23;;;;;;;40.10;19.90;;;;;;;-7.05;100.00;100458.38;5031052;28;20450;-73
2024/01/19 01:30:51;;;;;;;46.03;20.13;;;;;;;-7.02;100.00;100470.00;5031891;28;20462;-73
2024/01/19 01:33:18;;;;;;;38.77;19.73;;;;;;;-7.01;100.00;100476.69;5031389;28;20483;-73
2024/01/19 01:35:44;;;;;;;44.13;19.50;;;;;;;-7.01;100.00;100472.38;5034700;28;20475;-74
2024/01/19 01:38:11;;;;;;;40.90;19.10;;;;;;;-7.01;100.00;100474.13;5036486;28;20984;-74
2024/01/19 01:40:37;;;;;;;44.13;20.13;;;;;;;-7.04;100.00;100470.22;5033081;28;20836;-76
2024/01/19 01:43:06;;;;;;;40.93;19.37;;;;;;;-7.05;100.00;100476.34;5030452;28;20473;-73
2024/01/19 01:45:33;;;;;;;40.50;18.57;;;;;;;-7.09;100.00;100482.91;5027725;28;20474;-73
2024/01/19 01:48:00;;;;;;;36.17;18.37;;;;;;;-7.10;100.00;100480.56;5034126;28;20484;-73
2024/01/19 01:50:27;;;;;;;38.07;17.67;;;;;;;-7.13;100.00;100480.97;5032513;28;20446;-74
2024/01/19 01:52:54;;;;;;;40.83;19.27;;;;;;;-7.13;100.00;100491.25;5022843;28;20473;-74
2024/01/19 01:55:20;;;;;;;42.83;18.90;;;;;;;-7.18;100.00;100489.31;5034859;28;20476;-74
2024/01/19 01:57:47;;;;;;;37.47;18.63;;;;;;;-7.20;100.00;100487.97;5033221;28;20440;-73
2024/01/19 02:00:17;;;;;;;43.53;19.23;;;;;;;-7.24;100.00;100492.75;5024753;28;20544;-73
2024/01/19 02:02:43;;;;;;;40.40;19.00;;;;;;;-7.27;100.00;100493.16;5033648;28;20459;-74
2024/01/19 02:05:11;;;;;;;40.83;18.13;;;;;;;-7.26;100.00;100492.16;5036300;28;20947;-73
2024/01/19 02:07:37;;;;;;;42.40;18.83;;;;;;;-7.26;100.00;100496.50;5031463;28;20507;-73
2024/01/19 02:10:04;;;;;;;43.80;19.80;;;;;;;-7.30;100.00;100503.81;5032975;28;20458;-74
2024/01/19 02:12:32;;;;;;;45.40;19.27;;;;;;;-7.27;100.00;100503.41;5028907;28;20884;-73
2024/01/19 02:14:59;;;;;;;32.90;16.90;;;;;;;-7.29;100.00;100512.31;5034571;28;20908;-73
2024/01/19 02:17:26;;;;;;;40.97;18.90;;;;;;;-7.26;100.00;100510.09;5037043;28;20551;-73
2024/01/19 02:19:52;;;;;;;40.47;19.13;;;;;;;-7.24;100.00;100512.47;5031382;28;20466;-73
2024/01/19 02:22:20;;;;;;;43.30;17.70;;;;;;;-7.23;100.00;100516.59;5031083;28;20460;-73
2024/01/19 02:24:48;;;;;;;35.80;18.10;;;;;;;-7.20;100.00;100516.19;5030068;28;20461;-73
2024/01/19 02:27:15;;;;;;;38.77;18.63;;;;;;;-7.20;100.00;100513.63;5031958;28;20453;-73
2024/01/19 02:29:48;;;;;;;40.63;18.13;;;;;;;-7.19;100.00;100518.50;5036672;28;20451;-74
2024/01/19 02:32:15;;;;;;;43.93;20.40;;;;;;;-7.19;100.00;100518.50;5033946;28;21381;-74
2024/01/19 02:34:41;;;;;;;37.50;17.93;;;;;;;-7.18;100.00;100522.66;5034061;28;20463;-74
2024/01/19 02:37:07;;;;;;;37.40;17.17;;;;;;;-7.20;100.00;100514.38;5031625;28;20465;-74
2024/01/19 02:39:34;;;;;;;40.10;18.17;;;;;;;-7.18;100.00;100525.25;5028441;28;20445;-74
2024/01/19 02:42:01;;;;;;;35.67;16.70;;;;;;;-7.19;100.00;100528.78;5038465;28;20944;-74
2024/01/19 02:44:28;;;;;;;36.63;16.77;;;;;;;-7.18;100.00;100529.56;5039041;28;20778;-74
2024/01/19 02:46:54;;;;;;;32.67;16.87;;;;;;;-7.17;100.00;100534.50;5034496;28;20461;-74
2024/01/19 02:49:20;;;;;;;40.63;16.60;;;;;;;-7.21;100.00;100537.69;5036609;28;20460;-74
2024/01/19 02:51:47;;;;;;;37.60;17.87;;;;;;;-7.24;100.00;100538.91;5036260;28;20449;-73
2024/01/19 02:54:13;;;;;;;38.97;17.97;;;;;;;-7.27;100.00;100536.75;5034348;28;20480;-74
2024/01/19 02:56:39;;;;;;;36.37;17.47;;;;;;;-7.27;100.00;100547.00;5030954;28;20452;-74
2024/01/19 02:59:08;;;;;;;41.33;19.67;;;;;;;-7.29;100.00;100543.09;5035929;28;20785;-73
2024/01/19 03:01:35;;;;;;;36.30;17.37;;;;;;;-7.30;100.00;100538.97;5029788;28;20457;-74
2024/01/19 03:04:02;;;;;;;40.60;17.73;;;;;;;-7.31;100.00;100542.53;5037699;28;20465;-73
2024/01/19 03:06:28;;;;;;;39.67;18.83;;;;;;;-7.28;100.00;100544.66;5034844;28;20522;-73
2024/01/19 03:08:55;;;;;;;37.93;17.63;;;;;;;-7.26;100.00;100548.56;5032242;28;20450;-74
2024/01/19 03:11:21;;;;;;;37.20;17.63;;;;;;;-7.24;100.00;100543.25;5032819;28;20462;-73
2024/01/19 03:13:50;;;;;;;40.33;19.00;;;;;;;-7.21;100.00;100540.25;5028904;28;20481;-74
2024/01/19 03:16:18;;;;;;;40.27;17.10;;;;;;;-7.17;100.00;100544.75;5037362;28;20465;-74
2024/01/19 03:18:44;;;;;;;35.10;17.37;;;;;;;-7.16;100.00;100546.31;5024336;28;20453;-73
2024/01/19 03:21:10;;;;;;;40.13;18.73;;;;;;;-7.15;100.00;100544.56;5029669;28;20489;-74
2024/01/19 03:23:37;;;;;;;39.13;18.20;;;;;;;-7.12;100.00;100557.75;5041564;28;20996;-73
2024/01/19 03:26:03;;;;;;;37.47;18.97;;;;;;;-7.11;100.00;100551.59;5034630;28;20805;-73
2024/01/19 03:28:30;;;;;;;35.77;16.80;;;;;;;-7.09;100.00;100557.31;5029715;28;20453;-74
2024/01/19 03:30:56;;;;;;;35.53;17.57;;;;;;;-7.09;100.00;100562.44;5033834;28;20450;-73
2024/01/19 03:33:24;;;;;;;39.03;18.47;;;;;;;-7.09;100.00;100559.88;5035418;28;20480;-73
2024/01/19 03:35:52;;;;;;;35.20;16.77;;;;;;;-7.09;100.00;100553.97;5034153;28;20492;-74
2024/01/19 03:38:18;;;;;;;39.20;17.47;;;;;;;-7.09;100.00;100559.88;5031580;28;20472;-74
2024/01/19 03:40:46;;;;;;;42.13;17.47;;;;;;;-7.11;100.00;100561.06;5034072;28;20554;-73
2024/01/19 03:43:12;;;;;;;34.43;17.67;;;;;;;-7.11;100.00;100571.34;5030749;28;20833;-73
2024/01/19 03:45:38;;;;;;;36.27;16.43;;;;;;;-7.13;100.00;100570.78;5029864;28;20474;-73
2024/01/19 03:48:05;;;;;;;37.07;16.97;;;;;;;-7.14;100.00;100571.78;5033145;28;21106;-73
2024/01/19 03:50:33;;;;;;;36.33;17.87;;;;;;;-7.13;100.00;100575.91;5031653;28;20549;-74
2024/01/19 03:52:59;;;;;;;36.50;16.17;;;;;;;-7.14;100.00;100582.81;5039697;28;20978;-73
2024/01/19 03:55:25;;;;;;;33.27;17.37;;;;;;;-7.13;100.00;100581.81;5041360;28;20900;-73
2024/01/19 03:57:52;;;;;;;34.83;16.37;;;;;;;-7.14;100.00;100593.06;5035598;28;20456;-73
2024/01/19 04:00:18;;;;;;;36.77;16.73;;;;;;;-7.16;100.00;100584.00;5028036;28;20465;-74
2024/01/19 04:02:45;;;;;;;37.37;16.60;;;;;;;-7.19;100.00;100597.28;5027191;28;20454;-74
2024/01/19 04:05:11;;;;;;;33.63;17.77;;;;;;;-7.23;100.00;100589.22;5032347;28;20484;-74
2024/01/19 04:07:39;;;;;;;32.87;16.63;;;;;;;-7.21;100.00;100594.91;5028488;28;20481;-73
2024/01/19 04:10:06;;;;;;;32.50;16.40;;;;;;;-7.25;100.00;100593.75;5028837;28;20536;-73
2024/01/19 04:12:33;;;;;;;39.20;16.70;;;;;;;-7.25;100.00;100591.19;5034115;28;20565;-74
2024/01/19 04:14:59;;;;;;;29.97;14.80;;;;;;;-7.25;100.00;100598.09;5033321;28;20491;-73
2024/01/19 04:17:25;;;;;;;32.53;16.37;;;;;;;-7.26;100.00;100599.88;5035150;28;20458;-74
2024/01/19 04:19:51;;;;;;;32.93;15.57;;;;;;;-7.23;100.00;100606.38;5030626;28;20547;-73
2024/01/19 04:22:17;;;;;;;35.70;17.40;;;;;;;-7.23;100.00;100606.38;5034627;28;20207;-73
2024/01/19 04:24:45;;;;;;;32.83;17.40;;;;;;;-7.23;100.00;100611.50;5028334;28;20470;-74
2024/01/19 04:27:11;;;;;;;40.97;20.43;;;;;;;-7.26;100.00;100607.56;5023567;28;20471;-74
2024/01/19 04:29:38;;;;;;;37.07;19.10;;;;;;;-7.26;100.00;100607.56;5028342;28;20446;-73
2024/01/19 04:32:05;;;;;;;38.37;18.43;;;;;;;-7.27;100.00;100613.69;5027332;28;20438;-73
2024/01/19 04:34:31;;;;;;;40.30;20.03;;;;;;;-7.31;100.00;100607.41;5025555;28;20861;-73
2024/01/19 04:36:57;;;;;;;36.13;17.97;;;;;;;-7.33;100.00;100613.75;5030414;28;20827;-74
2024/01/19 04:39:24;;;;;;;36.40;17.33;;;;;;;-7.34;100.00;100623.22;5034057;28;20468;-73
2024/01/19 04:41:51;;;;;;;36.53;17.83;;;;;;;-7.33;100.00;100622.22;5031615;28;20477;-74
2024/01/19 04:44:18;;;;;;;34.13;16.57;;;;;;;-7.35;100.00;100629.34;5028101;28;20554;-74
2024/01/19 04:46:44;;;;;;;30.10;16.40;;;;;;;-7.36;100.00;100624.44;5032698;28;20480;-73
2024/01/19 04:49:10;;;;;;;34.03;15.43;;;;;;;-7.39;100.00;100624.84;5023288;28;20460;-73
2024/01/19 04:51:37;;;;;;;32.33;15.93;;;;;;;-7.41;100.00;100631.97;5027813;28;20458;-74
2024/01/19 04:54:03;;;;;;;29.57;14.90;;;;;;;-7.41;100.00;100630.16;5029995;28;21051;-74
2024/01/19 04:56:29;;;;;;;32.50;16.93;;;;;;;-7.42;100.00;100633.72;5031011;28;20455;-73
2024/01/19 04:58:58;;;;;;;34.27;15.63;;;;;;;-7.41;100.00;100631.97;5036744;28;20469;-73
2024/01/19 05:01:24;;;;;;;31.00;16.00;;;;;;;-7.42;100.00;100638.84;5029305;28;20446;-73
2024/01/19 05:03:50;;;;;;;35.50;16.07;;;;;;;-7.41;100.00;100644.78;5033370;28;20449;-74
2024/01/19 05:06:17;;;;;;;33.00;14.67;;;;;;;-7.39;100.00;100641.03;5026946;28;20454;-74
2024/01/19 05:08:43;;;;;;;30.87;14.30;;;;;;;-7.41;100.00;100650.69;5035906;28;20458;-74
2024/01/19 05:11:13;;;;;;;32.83;14.57;;;;;;;-7.39;100.00;100653.03;5029823;28;20461;-73
2024/01/19 05:13:40;;;;;;;31.10;15.40;;;;;;;-7.39;100.00;100653.03;5032575;28;20469;-74
2024/01/19 05:16:08;;;;;;;27.60;14.53;;;;;;;-7.41;100.00;100653.25;5031501;28;20547;-73
2024/01/19 05:18:35;;;;;;;34.00;15.07;;;;;;;-7.40;100.00;100664.31;5025358;28;20904;-74
2024/01/19 05:21:02;;;;;;;29.37;13.03;;;;;;;-7.40;100.00;100666.88;5032645;28;20589;-73
2024/01/19 05:23:30;;;;;;;27.40;13.93;;;;;;;-7.43;100.00;100662.94;5036896;28;20460;-74
2024/01/19 05:25:57;;;;;;;29.53;15.33;;;;;;;-7.43;100.00;100670.63;5041498;28;20991;-73
2024/01/19 05:28:23;;;;;;;34.40;17.30;;;;;;;-7.42;100.00;100671.41;5026312;28;20458;-73
2024/01/19 05:30:50;;;;;;;30.97;15.80;;;;;;;-7.43;100.00;100667.25;5032713;28;20491;-73
2024/01/19 05:33:17;;;;;;;30.93;14.87;;;;;;;-7.44;100.00;100673.38;5033355;28;20479;-73
2024/01/19 05:35:44;;;;;;;31.27;16.50;;;;;;;-7.39;100.00;100668.44;5034300;28;20504;-73
2024/01/19 05:38:10;;;;;;;36.83;16.60;;;;;;;-7.40;100.00;100664.31;5033383;28;20467;-73
2024/01/19 05:40:36;;;;;;;36.00;18.03;;;;;;;-7.39;100.00;100678.69;5035113;28;20461;-73
2024/01/19 05:43:03;;;;;;;44.13;21.63;;;;;;;-7.38;100.00;100670.00;5031601;28;20467;-74
2024/01/19 05:45:30;;;;;;;38.60;19.03;;;;;;;-7.38;100.00;100665.66;5035978;28;20481;-73
2024/01/19 05:47:56;;;;;;;39.73;19.00;;;;;;;-7.35;100.00;100675.50;5033425;28;20459;-74
2024/01/19 05:50:24;;;;;;;43.83;17.60;;;;;;;-7.39;100.00;100681.25;5029631;28;20460;-74
2024/01/19 05:52:50;;;;;;;40.87;18.23;;;;;;;-7.37;100.00;100686.94;5029405;28;20451;-73
2024/01/19 05:55:16;;;;;;;53.50;18.33;;;;;;;-7.36;100.00;100686.75;5029818;28;20569;-73
2024/01/19 05:57:43;;;;;;;54.97;18.20;;;;;;;-7.37;100.00;100690.31;5030488;28;20470;-73
2024/01/19 06:00:10;;;;;;;58.87;22.03;;;;;;;-7.38;100.00;100696.44;5029344;28;20461;-73
2024/01/19 06:02:39;;;;;;;54.83;23.10;;;;;;;-7.39;100.00;100699.19;5027585;28;20460;-74
2024/01/19 06:05:06;;;;;;;41.27;17.20;;;;;;;-7.40;100.00;100700.97;5033175;28;20990;-73
2024/01/19 06:07:34;;;;;;;34.47;14.67;;;;;;;-7.44;100.00;100693.91;5030768;28;20445;-73
2024/01/19 06:10:00;;;;;;;29.87;14.70;;;;;;;-7.50;100.00;100692.94;5040214;28;20523;-73
2024/01/19 06:12:27;;;;;;;32.00;14.60;;;;;;;-7.52;100.00;100704.38;5029640;28;20642;-73
2024/01/19 06:14:53;;;;;;;37.90;15.43;;;;;;;-7.51;100.00;100705.97;5030829;28;20579;-74
2024/01/19 06:17:19;;;;;;;53.23;21.37;;;;;;;-7.53;100.00;100705.38;5036388;28;20466;-73
2024/01/19 06:19:46;;;;;;;43.27;19.43;;;;;;;-7.57;100.00;100712.69;5030522;28;20513;-73
2024/01/19 06:22:12;;;;;;;39.43;16.83;;;;;;;-7.58;100.00;100715.47;5027876;28;20545;-74
2024/01/19 06:24:41;;;;;;;31.93;14.03;;;;;;;-7.59;100.00;100721.59;5028514;28;20479;-74
2024/01/19 06:27:07;;;;;;;32.30;12.60;;;;;;;-7.63;100.00;100710.97;5034991;28;20446;-74
2024/01/19 06:29:34;;;;;;;25.33;12.20;;;;;;;-7.63;100.00;100721.22;5034005;28;20491;-73
2024/01/19 06:32:01;;;;;;;26.23;12.20;;;;;;;-7.64;100.00;100718.84;5033384;28;20459;-73
2024/01/19 06:34:27;;;;;;;23.87;11.63;;;;;;;-7.66;100.00;100723.41;5033158;28;20543;-74
2024/01/19 06:36:53;;;;;;;26.40;10.57;;;;;;;-7.65;100.00;100728.34;5031219;28;20465;-73
2024/01/19 06:39:20;;;;;;;28.67;13.00;;;;;;;-7.67;100.00;100726.97;5032529;28;20447;-73
2024/01/19 06:41:48;;;;;;;26.97;12.67;;;;;;;-7.66;100.00;100736.22;5025075;28;20450;-73
2024/01/19 06:44:14;;;;;;;25.10;11.73;;;;;;;-7.69;100.00;100732.28;5025591;28;20514;-74
2024/01/19 06:46:44;;;;;;;23.47;10.80;;;;;;;-7.67;100.00;100734.66;5031367;28;20447;-74
2024/01/19 06:49:10;;;;;;;21.40;10.93;;;;;;;-7.67;100.00;100732.84;5030054;28;20639;-73
2024/01/19 06:51:37;;;;;;;26.47;11.13;;;;;;;-7.68;100.00;100735.63;5026338;28;20457;-73
2024/01/19 06:54:03;;;;;;;23.70;11.97;;;;;;;-7.68;100.00;100746.66;5032505;28;20490;-73
2024/01/19 06:56:30;;;;;;;23.77;10.90;;;;;;;-7.68;100.00;100745.88;5031597;28;20475;-74
2024/01/19 06:58:57;;;;;;;20.63;10.80;;;;;;;-7.68;100.00;100743.31;5032373;28;20450;-73
2024/01/19 07:01:24;;;;;;;22.67;12.07;;;;;;;-7.69;100.00;100741.75;5029184;28;20462;-73
2024/01/19 07:03:50;;;;;;;21.03;11.47;;;;;;;-7.67;100.00;100750.78;5028462;28;20464;-73
2024/01/19 07:06:16;;;;;;;23.97;10.77;;;;;;;-7.63;100.00;100751.19;5029403;28;20463;-74
2024/01/19 07:08:44;;;;;;;21.17;11.47;;;;;;;-7.60;100.00;100754.16;5024054;28;20443;-74
2024/01/19 07:11:10;;;;;;;21.07;10.70;;;;;;;-7.57;100.00;100761.41;5030052;28;20456;-74
2024/01/19 07:13:37;;;;;;;21.17;11.10;;;;;;;-7.55;100.00;100762.00;5029564;28;20479;-74
2024/01/19 07:16:07;;;;;;;23.87;11.97;;;;;;;-7.50;100.00;100756.25;5028829;28;20466;-74
2024/01/19 07:18:34;;;;;;;25.13;11.67;;;;;;;-7.47;100.00;100766.91;5025429;28;20961;-74
2024/01/19 07:21:01;;;;;;;19.47;10.93;;;;;;;-7.43;100.00;100762.13;5029758;28;20559;-74
2024/01/19 07:23:27;;;;;;;24.87;12.27;;;;;;;-7.41;100.00;100762.75;5022644;28;20955;-74
2024/01/19 07:25:53;;;;;;;23.37;11.47;;;;;;;-7.38;100.00;100768.25;5032349;28;20501;-73
2024/01/19 07:28:20;;;;;;;20.77;10.63;;;;;;;-7.35;100.00;100767.81;5030356;28;20444;-74
2024/01/19 07:30:46;;;;;;;26.43;13.63;;;;;;;-7.32;100.00;100770.00;5022742;28;20462;-73
2024/01/19 07:33:14;;;;;;;31.53;16.03;;;;;;;-7.26;100.00;100778.66;5028825;28;20465;-73
2024/01/19 07:35:40;;;;;;;28.20;15.20;;;;;;;-7.21;100.00;100777.03;5027048;28;20484;-73
2024/01/19 07:38:07;;;;;;;25.67;13.57;;;;;;;-7.20;100.00;100775.25;5029468;28;20459;-73
2024/01/19 07:40:33;;;;;;;25.37;13.47;;;;;;;-7.16;100.00;100776.41;5030130;28;20442;-73
2024/01/19 07:42:59;;;;;;;27.83;13.17;;;;;;;-7.13;100.00;100781.94;5022901;28;20960;-74
2024/01/19 07:45:26;;;;;;;22.10;12.60;;;;;;;-7.05;100.00;100778.34;5023980;28;20476;-74
2024/01/19 07:47:52;;;;;;;26.37;12.03;;;;;;;-6.98;100.00;100779.88;5029285;28;20467;-74
2024/01/19 07:50:20;;;;;;;25.43;13.70;;;;;;;-6.89;100.00;100783.75;5027326;28;20457;-74
2024/01/19 07:52:46;;;;;;;26.43;13.57;;;;;;;-6.78;100.00;100788.22;5022838;28;20500;-73
2024/01/19 07:55:12;;;;;;;31.40;13.57;;;;;;;-6.60;100.00;100790.88;5023994;28;20523;-73
2024/01/19 07:57:38;;;;;;;29.33;14.43;;;;;;;-6.48;100.00;100784.06;5027786;28;20801;-73
2024/01/19 08:00:06;;;;;;;33.37;15.00;;;;;;;-6.38;100.00;100781.81;5029068;28;20200;-74
2024/01/19 08:02:33;;;;;;;32.43;15.17;;;;;;;-6.22;100.00;100780.50;5027186;28;20855;-74
2024/01/19 08:04:59;;;;;;;30.50;15.03;;;;;;;-6.12;100.00;100785.94;5028790;28;20470;-74
2024/01/19 08:07:27;;;;;;;27.13;14.13;;;;;;;-6.00;100.00;100781.66;5041926;28;20466;-74
2024/01/19 08:09:54;;;;;;;33.87;15.47;;;;;;;-5.89;100.00;100786.91;5023383;28;20952;-73
2024/01/19 08:12:20;;;;;;;31.70;16.23;;;;;;;-5.81;100.00;100784.03;5026712;28;20973;-74
2024/01/19 08:14:46;;;;;;;33.70;15.83;;;;;;;-5.71;100.00;100792.00;5024993;28;20478;-74
2024/01/19 08:17:13;;;;;;;31.97;15.90;;;;;;;-5.60;100.00;100796.44;5028997;28;20434;-74
2024/01/19 08:19:39;;;;;;;31.40;16.90;;;;;;;-5.52;100.00;100796.16;5027584;28;20460;-74
2024/01/19 08:22:05;;;;;;;32.30;15.07;;;;;;;-5.45;100.00;100796.84;5026688;28;20462;-74
2024/01/19 08:24:36;;;;;;;33.13;16.23;;;;;;;-5.30;100.00;100799.84;5023928;28;20992;-74
2024/01/19 08:27:03;;;;;;;35.43;15.83;;;;;;;-5.23;100.00;100807.50;5027310;28;20468;-73
2024/01/19 08:29:29;;;;;;;32.53;17.33;;;;;;;-5.14;100.00;100811.34;5029492;28;20446;-74
2024/01/19 08:31:56;;;;;;;39.43;16.37;;;;;;;-5.06;100.00;100816.97;5025627;28;20618;-73
2024/01/19 08:34:22;;;;;;;32.93;16.10;;;;;;;-4.97;100.00;100818.22;5025421;28;20482;-74
2024/01/19 08:36:48;;;;;;;36.50;16.93;;;;;;;-4.90;100.00;100818.94;5023468;28;20983;-73
2024/01/19 08:39:15;;;;;;;39.47;17.57;;;;;;;-4.85;100.00;100824.22;5024330;28;20470;-74
2024/01/19 08:41:44;;;;;;;37.67;18.57;;;;;;;-4.76;100.00;100833.19;5028228;28;20470;-74
2024/01/19 08:44:10;;;;;;;37.80;17.63;;;;;;;-4.68;100.00;100826.94;5026635;28;20473;-74
2024/01/19 08:46:42;;;;;;;33.20;17.37;;;;;;;-4.61;100.00;100838.72;5030954;28;20462;-74
2024/01/19 08:49:09;;;;;;;36.87;16.90;;;;;;;-4.53;100.00;100842.78;5025412;28;20462;-74
2024/01/19 08:51:35;;;;;;;34.13;15.53;;;;;;;-4.47;100.00;100845.25;5023808;28;20469;-74
2024/01/19 08:54:02;;;;;;;40.80;17.87;;;;;;;-4.40;100.00;100838.22;5021715;28;20478;-74
2024/01/19 08:56:28;;;;;;;36.43;17.70;;;;;;;-4.33;100.00;100846.66;5029687;28;20565;-74
2024/01/19 08:58:57;;;;;;;32.27;16.30;;;;;;;-4.27;100.00;100848.31;5027553;28;20446;-74
2024/01/19 09:01:23;;;;;;;45.57;18.47;;;;;;;-4.17;100.00;100845.19;5026244;28;20466;-73
2024/01/19 09:03:50;;;;;;;38.97;18.17;;;;;;;-4.11;100.00;100847.69;5026824;28;20981;-73
2024/01/19 09:06:16;;;;;;;35.40;17.03;;;;;;;-4.04;100.00;100857.88;5023836;28;20457;-73
2024/01/19 09:08:43;;;;;;;36.00;16.70;;;;;;;-3.98;100.00;100864.72;5031490;28;21002;-73
2024/01/19 09:11:11;;;;;;;38.00;17.13;;;;;;;-3.92;100.00;100869.00;5025525;28;21056;-74
2024/01/19 09:13:37;;;;;;;34.10;16.83;;;;;;;-3.85;100.00;100882.56;5031501;28;20448;-73
2024/01/19 09:16:06;;;;;;;37.50;16.63;;;;;;;-3.80;100.00;100886.03;5025105;28;20557;-73
2024/01/19 09:18:32;;;;;;;39.87;17.07;;;;;;;-3.74;100.00;100876.63;5030148;28;20535;-73
2024/01/19 09:20:59;;;;;;;40.93;17.73;;;;;;;-3.71;100.00;100881.31;5030835;28;20463;-73
2024/01/19 09:23:25;;;;;;;40.30;17.53;;;;;;;-3.66;100.00;100891.75;5028176;28;20455;-73
2024/01/19 09:25:52;;;;;;;44.37;17.57;;;;;;;-3.62;100.00;100883.38;5031633;28;20475;-73
2024/01/19 09:28:18;;;;;;;44.00;18.43;;;;;;;-3.56;100.00;100892.78;5028845;28;20451;-73
2024/01/19 09:30:44;;;;;;;39.53;16.20;;;;;;;-3.52;100.00;100896.47;5030638;28;20464;-73
2024/01/19 09:33:12;;;;;;;36.90;17.07;;;;;;;-3.49;100.00;100903.75;5024506;28;21030;-73
2024/01/19 09:35:39;;;;;;;36.87;16.67;;;;;;;-3.46;100.00;100908.50;5030283;28;20472;-73
2024/01/19 09:38:05;;;;;;;39.27;16.73;;;;;;;-3.41;100.00;100921.50;5031756;28;20563;-73
2024/01/19 09:40:32;;;;;;;40.83;19.20;;;;;;;-3.35;100.00;100920.59;5030828;28;20826;-74
2024/01/19 09:42:57;;;;;;;40.90;18.00;;;;;;;-3.32;100.00;100922.72;5030971;28;21103;-73
2024/01/19 09:45:26;;;;;;;35.77;16.33;;;;;;;-3.27;100.00;100932.38;5029896;28;20479;-73
2024/01/19 09:48:03;;;;;;;35.10;17.27;;;;;;;-3.24;100.00;100942.22;5024380;28;20212;-73
2024/01/19 09:50:34;;;;;;;37.00;16.93;;;;;;;-3.20;100.00;100954.47;5023105;28;20465;-73
2024/01/19 09:53:03;;;;;;;37.43;16.33;;;;;;;-3.17;100.00;100951.44;5021813;28;20487;-73
2024/01/19 09:55:29;;;;;;;37.30;17.00;;;;;;;-3.14;100.00;100948.41;5026558;28;21082;-73
2024/01/19 09:57:56;;;;;;;38.97;17.20;;;;;;;-3.10;100.00;100954.69;5024567;28;20469;-73
2024/01/19 10:00:23;;;;;;;37.77;16.70;;;;;;;-3.06;100.00;100950.63;5026356;28;20471;-74
2024/01/19 10:02:51;;;;;;;35.77;17.03;;;;;;;-3.03;100.00;100955.34;5027588;28;21013;-73
2024/01/19 10:05:18;;;;;;;44.47;17.67;;;;;;;-2.98;100.00;100942.53;5029530;28;20549;-73
2024/01/19 10:07:47;;;;;;;36.60;15.87;;;;;;;-2.94;100.00;100938.50;5024342;28;20810;-73
2024/01/19 10:10:15;;;;;;;38.83;16.90;;;;;;;-2.90;100.00;100941.41;5027599;28;20640;-73
2024/01/19 10:12:42;;;;;;;38.93;15.97;;;;;;;-2.86;100.00;100935.53;5022594;28;20889;-74
2024/01/19 10:15:11;;;;;;;31.10;16.30;;;;;;;-2.82;100.00;100943.63;5027492;28;20564;-73
2024/01/19 10:17:38;;;;;;;34.20;15.50;;;;;;;-2.75;100.00;100936.53;5027245;28;20457;-74
2024/01/19 10:20:05;;;;;;;34.80;15.47;;;;;;;-2.69;100.00;100959.63;5028901;28;20552;-73
2024/01/19 10:22:32;;;;;;;39.63;15.87;;;;;;;-2.64;100.00;100949.41;5027665;28;20462;-73
2024/01/19 10:25:02;;;;;;;33.80;15.90;;;;;;;-2.59;100.00;100946.91;5027150;28;20230;-73
2024/01/19 10:27:44;;;;;;;31.73;14.83;;;;;;;-2.57;100.00;100946.69;5026182;28;21013;-73
2024/01/19 10:30:13;;;;;;;29.40;14.57;;;;;;;-2.53;100.00;100943.44;5023379;28;20462;-73
2024/01/19 10:32:40;;;;;;;32.97;13.60;;;;;;;-2.48;100.00;100958.25;5031892;28;20442;-73
2024/01/19 10:35:08;;;;;;;34.80;16.03;;;;;;;-2.45;100.00;100955.97;5029188;28;20532;-73
2024/01/19 10:37:35;;;;;;;31.87;15.07;;;;;;;-2.41;100.00;100964.03;5025241;28;20803;-73
2024/01/19 10:40:17;;;;;;;31.73;14.23;;;;;;;-2.40;100.00;100963.81;5021549;28;20466;-73
2024/01/19 10:42:45;;;;;;;27.93;13.87;;;;;;;-2.38;100.00;100961.78;5026144;28;20279;-73
2024/01/19 10:45:17;;;;;;;29.73;13.90;;;;;;;-2.35;100.00;100958.75;5028929;28;20256;-73
2024/01/19 10:47:44;;;;;;;31.13;14.97;;;;;;;-2.29;100.00;100964.81;5022116;28;20196;-73
2024/01/19 10:50:13;;;;;;;34.77;15.20;;;;;;;-2.26;100.00;100961.75;5030096;28;20255;-73
2024/01/19 10:52:41;;;;;;;32.93;16.70;;;;;;;-2.20;100.00;100961.59;5028956;28;20223;-73
2024/01/19 10:55:07;;;;;;;24.97;12.70;;;;;;;-2.14;100.00;100970.25;5029779;28;20291;-73
2024/01/19 10:57:35;;;;;;;30.67;13.30;;;;;;;-2.11;100.00;100978.31;5025128;28;20196;-73
2024/01/19 11:00:19;;;;;;;25.90;12.53;;;;;;;-2.04;100.00;100978.16;5020166;28;20202;-73